sensor_id;sensor_type;location;lat;lon;timestamp;temperature;humidity
13052;DHT22;6592;47.484;9.726;2023-12-14T00:01:42;7.30;99.90
13052;DHT22;6592;47.484;9.726;2023-12-14T00:04:14;7.30;99.90
13052;DHT22;6592;47.484;9.726;2023-12-14T00:06:42;7.20;99.90
13052;DHT22;6592;47.484;9.726;2023-12-14T00:09:11;7.20;99.90
13052;DHT22;6592;47.484;9.726;2023-12-14T00:11:42;7.20;99.90
13052;DHT22;6592;47.484;9.726;2023-12-14T00:14:10;7.20;99.90
13052;DHT22;6592;47.484;9.726;2023-12-14T00:16:38;7.10;99.90
13052;DHT22;6592;47.484;9.726;2023-12-14T00:19:07;7.10;99.90
13052;DHT22;6592;47.484;9.726;2023-12-14T00:21:37;7.20;99.90
13052;DHT22;6592;47.484;9.726;2023-12-14T00:24:06;7.20;99.90
13052;DHT22;6592;47.484;9.726;2023-12-14T00:26:34;7.10;99.90
13052;DHT22;6592;47.484;9.726;2023-12-14T00:29:02;7.10;99.90
13052;DHT22;6592;47.484;9.726;2023-12-14T00:31:31;7.10;99.90
13052;DHT22;6592;47.484;9.726;2023-12-14T00:33:59;7.20;99.90
13052;DHT22;6592;47.484;9.726;2023-12-14T00:36:27;7.20;99.90
13052;DHT22;6592;47.484;9.726;2023-12-14T00:38:57;7.20;99.90
13052;DHT22;6592;47.484;9.726;2023-12-14T00:41:25;7.30;99.90
13052;DHT22;6592;47.484;9.726;2023-12-14T00:43:53;7.30;99.90
13052;DHT22;6592;47.484;9.726;2023-12-14T00:46:22;7.30;99.90
13052;DHT22;6592;47.484;9.726;2023-12-14T00:48:50;7.20;99.90
13052;DHT22;6592;47.484;9.726;2023-12-14T00:51:18;7.20;99.90
13052;DHT22;6592;47.484;9.726;2023-12-14T00:53:47;7.20;99.90
13052;DHT22;6592;47.484;9.726;2023-12-14T00:56:16;7.10;99.90
13052;DHT22;6592;47.484;9.726;2023-12-14T00:58:47;7.10;99.90
13052;DHT22;6592;47.484;9.726;2023-12-14T01:01:16;7.10;99.90
13052;DHT22;6592;47.484;9.726;2023-12-14T01:03:44;7.10;99.90
13052;DHT22;6592;47.484;9.726;2023-12-14T01:06:12;7.00;99.90
13052;DHT22;6592;47.484;9.726;2023-12-14T01:08:41;7.10;99.90
13052;DHT22;6592;47.484;9.726;2023-12-14T01:11:09;7.10;99.90
13052;DHT22;6592;47.484;9.726;2023-12-14T01:13:39;7.10;99.90
13052;DHT22;6592;47.484;9.726;2023-12-14T01:16:08;7.10;99.90
13052;DHT22;6592;47.484;9.726;2023-12-14T01:18:36;7.10;99.90
13052;DHT22;6592;47.484;9.726;2023-12-14T01:21:04;7.10;99.90
13052;DHT22;6592;47.484;9.726;2023-12-14T01:23:33;7.10;99.90
13052;DHT22;6592;47.484;9.726;2023-12-14T01:26:01;7.20;99.90
13052;DHT22;6592;47.484;9.726;2023-12-14T01:28:29;7.20;99.90
13052;DHT22;6592;47.484;9.726;2023-12-14T01:30:59;7.20;99.90
13052;DHT22;6592;47.484;9.726;2023-12-14T01:33:27;7.20;99.90
13052;DHT22;6592;47.484;9.726;2023-12-14T01:35:56;7.10;99.90
13052;DHT22;6592;47.484;9.726;2023-12-14T01:38:24;7.10;99.90
13052;DHT22;6592;47.484;9.726;2023-12-14T01:40:52;7.10;99.90
13052;DHT22;6592;47.484;9.726;2023-12-14T01:43:22;7.10;99.90
13052;DHT22;6592;47.484;9.726;2023-12-14T01:45:51;7.10;99.90
13052;DHT22;6592;47.484;9.726;2023-12-14T01:48:20;7.10;99.90
13052;DHT22;6592;47.484;9.726;2023-12-14T01:50:49;7.00;99.90
13052;DHT22;6592;47.484;9.726;2023-12-14T01:53:17;7.00;99.90
13052;DHT22;6592;47.484;9.726;2023-12-14T01:55:46;6.90;99.90
13052;DHT22;6592;47.484;9.726;2023-12-14T01:58:14;6.90;99.90
13052;DHT22;6592;47.484;9.726;2023-12-14T02:00:46;6.90;99.90
13052;DHT22;6592;47.484;9.726;2023-12-14T02:03:16;6.90;99.90
13052;DHT22;6592;47.484;9.726;2023-12-14T02:05:46;7.00;99.90
13052;DHT22;6592;47.484;9.726;2023-12-14T02:08:15;7.00;99.90
13052;DHT22;6592;47.484;9.726;2023-12-14T02:10:43;7.10;99.90
13052;DHT22;6592;47.484;9.726;2023-12-14T02:13:11;7.10;99.90
13052;DHT22;6592;47.484;9.726;2023-12-14T02:15:40;7.10;99.90
13052;DHT22;6592;47.484;9.726;2023-12-14T02:18:08;7.10;99.90
13052;DHT22;6592;47.484;9.726;2023-12-14T02:20:37;7.10;99.90
13052;DHT22;6592;47.484;9.726;2023-12-14T02:23:06;7.10;99.90
13052;DHT22;6592;47.484;9.726;2023-12-14T02:25:35;7.10;99.90
13052;DHT22;6592;47.484;9.726;2023-12-14T02:28:03;7.10;99.90
13052;DHT22;6592;47.484;9.726;2023-12-14T02:30:32;7.20;99.90
13052;DHT22;6592;47.484;9.726;2023-12-14T02:33:00;7.20;99.90
13052;DHT22;6592;47.484;9.726;2023-12-14T02:35:28;7.20;99.90
13052;DHT22;6592;47.484;9.726;2023-12-14T02:37:57;7.20;99.90
13052;DHT22;6592;47.484;9.726;2023-12-14T02:40:27;7.20;99.90
13052;DHT22;6592;47.484;9.726;2023-12-14T02:42:55;7.20;99.90
13052;DHT22;6592;47.484;9.726;2023-12-14T02:45:23;7.20;99.90
13052;DHT22;6592;47.484;9.726;2023-12-14T02:47:52;7.20;99.90
13052;DHT22;6592;47.484;9.726;2023-12-14T02:50:21;7.20;99.90
13052;DHT22;6592;47.484;9.726;2023-12-14T02:52:49;7.20;99.90
13052;DHT22;6592;47.484;9.726;2023-12-14T02:55:18;7.20;99.90
13052;DHT22;6592;47.484;9.726;2023-12-14T02:57:47;7.20;99.90
13052;DHT22;6592;47.484;9.726;2023-12-14T03:00:16;7.20;99.90
13052;DHT22;6592;47.484;9.726;2023-12-14T03:02:44;7.20;99.90
13052;DHT22;6592;47.484;9.726;2023-12-14T03:05:12;7.20;99.90
13052;DHT22;6592;47.484;9.726;2023-12-14T03:07:41;7.10;99.90
13052;DHT22;6592;47.484;9.726;2023-12-14T03:10:09;7.10;99.90
13052;DHT22;6592;47.484;9.726;2023-12-14T03:12:38;7.10;99.90
13052;DHT22;6592;47.484;9.726;2023-12-14T03:15:08;7.00;99.90
13052;DHT22;6592;47.484;9.726;2023-12-14T03:17:37;6.90;99.90
13052;DHT22;6592;47.484;9.726;2023-12-14T03:20:06;6.90;99.90
13052;DHT22;6592;47.484;9.726;2023-12-14T03:22:35;6.90;99.90
13052;DHT22;6592;47.484;9.726;2023-12-14T03:25:04;6.90;99.90
13052;DHT22;6592;47.484;9.726;2023-12-14T03:27:33;7.00;99.90
13052;DHT22;6592;47.484;9.726;2023-12-14T03:30:01;6.90;99.90
13052;DHT22;6592;47.484;9.726;2023-12-14T03:32:31;6.90;99.90
13052;DHT22;6592;47.484;9.726;2023-12-14T03:35:00;6.90;99.90
13052;DHT22;6592;47.484;9.726;2023-12-14T03:37:29;6.90;99.90
13052;DHT22;6592;47.484;9.726;2023-12-14T03:39:57;6.80;99.90
13052;DHT22;6592;47.484;9.726;2023-12-14T03:42:25;6.90;99.90
13052;DHT22;6592;47.484;9.726;2023-12-14T03:44:54;6.90;99.90
13052;DHT22;6592;47.484;9.726;2023-12-14T03:47:22;6.90;99.90
13052;DHT22;6592;47.484;9.726;2023-12-14T03:49:51;6.90;99.90
13052;DHT22;6592;47.484;9.726;2023-12-14T03:52:20;6.90;99.90
13052;DHT22;6592;47.484;9.726;2023-12-14T03:54:48;6.90;99.90
13052;DHT22;6592;47.484;9.726;2023-12-14T03:57:16;6.90;99.90
13052;DHT22;6592;47.484;9.726;2023-12-14T03:59:44;6.90;99.90
13052;DHT22;6592;47.484;9.726;2023-12-14T04:02:13;6.90;99.90
13052;DHT22;6592;47.484;9.726;2023-12-14T04:04:41;6.90;99.90
13052;DHT22;6592;47.484;9.726;2023-12-14T04:07:11;6.90;99.90
13052;DHT22;6592;47.484;9.726;2023-12-14T04:09:40;6.80;99.90
13052;DHT22;6592;47.484;9.726;2023-12-14T04:12:08;6.80;99.90
13052;DHT22;6592;47.484;9.726;2023-12-14T04:14:36;6.70;99.90
13052;DHT22;6592;47.484;9.726;2023-12-14T04:17:05;6.70;99.90
13052;DHT22;6592;47.484;9.726;2023-12-14T04:19:33;6.70;99.90
13052;DHT22;6592;47.484;9.726;2023-12-14T04:22:01;6.60;99.90
13052;DHT22;6592;47.484;9.726;2023-12-14T04:24:31;6.60;99.90
13052;DHT22;6592;47.484;9.726;2023-12-14T04:26:59;6.60;99.90
13052;DHT22;6592;47.484;9.726;2023-12-14T04:29:27;6.50;99.90
13052;DHT22;6592;47.484;9.726;2023-12-14T04:31:56;6.50;99.90
13052;DHT22;6592;47.484;9.726;2023-12-14T04:34:24;6.40;99.90
13052;DHT22;6592;47.484;9.726;2023-12-14T04:36:53;6.40;99.90
13052;DHT22;6592;47.484;9.726;2023-12-14T04:39:24;6.40;99.90
13052;DHT22;6592;47.484;9.726;2023-12-14T04:41:54;6.40;99.90
13052;DHT22;6592;47.484;9.726;2023-12-14T04:44:22;6.30;99.90
13052;DHT22;6592;47.484;9.726;2023-12-14T04:46:51;6.30;99.90
13052;DHT22;6592;47.484;9.726;2023-12-14T04:49:19;6.30;99.90
13052;DHT22;6592;47.484;9.726;2023-12-14T04:51:47;6.30;99.90
13052;DHT22;6592;47.484;9.726;2023-12-14T04:54:16;6.40;99.90
13052;DHT22;6592;47.484;9.726;2023-12-14T04:56:45;6.20;99.90
13052;DHT22;6592;47.484;9.726;2023-12-14T04:59:15;6.20;99.90
13052;DHT22;6592;47.484;9.726;2023-12-14T05:01:43;6.10;99.90
13052;DHT22;6592;47.484;9.726;2023-12-14T05:04:12;6.10;99.90
13052;DHT22;6592;47.484;9.726;2023-12-14T05:06:41;6.10;99.90
13052;DHT22;6592;47.484;9.726;2023-12-14T05:09:09;6.10;99.90
13052;DHT22;6592;47.484;9.726;2023-12-14T05:11:39;6.00;99.90
13052;DHT22;6592;47.484;9.726;2023-12-14T05:14:08;6.00;99.90
13052;DHT22;6592;47.484;9.726;2023-12-14T05:16:38;6.00;99.90
13052;DHT22;6592;47.484;9.726;2023-12-14T05:19:06;6.00;99.90
13052;DHT22;6592;47.484;9.726;2023-12-14T05:21:35;6.00;99.90
13052;DHT22;6592;47.484;9.726;2023-12-14T05:24:04;6.00;99.90
13052;DHT22;6592;47.484;9.726;2023-12-14T05:26:32;6.00;99.90
13052;DHT22;6592;47.484;9.726;2023-12-14T05:29:00;6.00;99.90
13052;DHT22;6592;47.484;9.726;2023-12-14T05:31:28;6.00;99.90
13052;DHT22;6592;47.484;9.726;2023-12-14T05:33:58;6.10;99.90
13052;DHT22;6592;47.484;9.726;2023-12-14T05:36:26;6.10;99.90
13052;DHT22;6592;47.484;9.726;2023-12-14T05:38:55;6.30;99.90
13052;DHT22;6592;47.484;9.726;2023-12-14T05:41:24;6.10;99.90
13052;DHT22;6592;47.484;9.726;2023-12-14T05:43:53;6.20;99.90
13052;DHT22;6592;47.484;9.726;2023-12-14T05:46:21;6.20;99.90
13052;DHT22;6592;47.484;9.726;2023-12-14T05:48:50;6.20;99.90
13052;DHT22;6592;47.484;9.726;2023-12-14T05:51:29;6.20;99.90
13052;DHT22;6592;47.484;9.726;2023-12-14T05:53:58;6.20;99.90
13052;DHT22;6592;47.484;9.726;2023-12-14T05:56:26;6.20;99.90
13052;DHT22;6592;47.484;9.726;2023-12-14T05:58:55;6.20;99.90
13052;DHT22;6592;47.484;9.726;2023-12-14T06:01:23;6.20;99.90
13052;DHT22;6592;47.484;9.726;2023-12-14T06:03:52;6.20;99.90
13052;DHT22;6592;47.484;9.726;2023-12-14T06:06:20;6.20;99.90
13052;DHT22;6592;47.484;9.726;2023-12-14T06:08:50;6.20;99.90
13052;DHT22;6592;47.484;9.726;2023-12-14T06:11:18;6.20;99.90
13052;DHT22;6592;47.484;9.726;2023-12-14T06:13:47;6.30;99.90
13052;DHT22;6592;47.484;9.726;2023-12-14T06:16:16;6.30;99.90
13052;DHT22;6592;47.484;9.726;2023-12-14T06:18:44;6.30;99.90
13052;DHT22;6592;47.484;9.726;2023-12-14T06:21:13;6.30;99.90
13052;DHT22;6592;47.484;9.726;2023-12-14T06:23:41;6.20;99.90
13052;DHT22;6592;47.484;9.726;2023-12-14T06:26:11;6.10;99.90
13052;DHT22;6592;47.484;9.726;2023-12-14T06:28:39;6.10;99.90
13052;DHT22;6592;47.484;9.726;2023-12-14T06:31:12;6.10;99.90
13052;DHT22;6592;47.484;9.726;2023-12-14T06:33:41;6.20;99.90
13052;DHT22;6592;47.484;9.726;2023-12-14T06:36:10;6.20;99.90
13052;DHT22;6592;47.484;9.726;2023-12-14T06:38:38;6.20;99.90
13052;DHT22;6592;47.484;9.726;2023-12-14T06:41:07;6.20;99.90
13052;DHT22;6592;47.484;9.726;2023-12-14T06:43:37;6.20;99.90
13052;DHT22;6592;47.484;9.726;2023-12-14T06:46:07;6.30;99.90
13052;DHT22;6592;47.484;9.726;2023-12-14T06:48:36;6.30;99.90
13052;DHT22;6592;47.484;9.726;2023-12-14T06:51:04;6.20;99.90
13052;DHT22;6592;47.484;9.726;2023-12-14T06:53:33;6.30;99.90
13052;DHT22;6592;47.484;9.726;2023-12-14T06:56:02;6.30;99.90
13052;DHT22;6592;47.484;9.726;2023-12-14T06:58:31;6.30;99.90
13052;DHT22;6592;47.484;9.726;2023-12-14T07:01:01;6.30;99.90
13052;DHT22;6592;47.484;9.726;2023-12-14T07:03:29;6.20;99.90
13052;DHT22;6592;47.484;9.726;2023-12-14T07:05:57;6.20;99.90
13052;DHT22;6592;47.484;9.726;2023-12-14T07:08:26;6.10;99.90
13052;DHT22;6592;47.484;9.726;2023-12-14T07:10:55;6.20;99.90
13052;DHT22;6592;47.484;9.726;2023-12-14T07:13:23;6.20;99.90
13052;DHT22;6592;47.484;9.726;2023-12-14T07:15:51;6.20;99.90
13052;DHT22;6592;47.484;9.726;2023-12-14T07:18:21;6.20;99.90
13052;DHT22;6592;47.484;9.726;2023-12-14T07:20:49;6.20;99.90
13052;DHT22;6592;47.484;9.726;2023-12-14T07:23:19;6.20;99.90
13052;DHT22;6592;47.484;9.726;2023-12-14T07:25:47;6.20;99.90
13052;DHT22;6592;47.484;9.726;2023-12-14T07:28:17;6.20;99.90
13052;DHT22;6592;47.484;9.726;2023-12-14T07:30:45;6.20;99.90
13052;DHT22;6592;47.484;9.726;2023-12-14T07:33:14;6.20;99.90
13052;DHT22;6592;47.484;9.726;2023-12-14T07:35:44;6.20;99.90
13052;DHT22;6592;47.484;9.726;2023-12-14T07:38:13;6.10;99.90
13052;DHT22;6592;47.484;9.726;2023-12-14T07:40:41;6.10;99.90
13052;DHT22;6592;47.484;9.726;2023-12-14T07:43:09;6.00;99.90
13052;DHT22;6592;47.484;9.726;2023-12-14T07:45:38;6.00;99.90
13052;DHT22;6592;47.484;9.726;2023-12-14T07:48:06;6.00;99.90
13052;DHT22;6592;47.484;9.726;2023-12-14T07:50:36;6.00;99.90
13052;DHT22;6592;47.484;9.726;2023-12-14T07:53:06;6.00;99.90
13052;DHT22;6592;47.484;9.726;2023-12-14T07:55:34;5.90;99.90
13052;DHT22;6592;47.484;9.726;2023-12-14T07:58:03;5.90;99.90
13052;DHT22;6592;47.484;9.726;2023-12-14T08:00:33;5.90;99.90
13052;DHT22;6592;47.484;9.726;2023-12-14T08:03:02;6.00;99.90
13052;DHT22;6592;47.484;9.726;2023-12-14T08:05:30;5.90;99.90
13052;DHT22;6592;47.484;9.726;2023-12-14T08:07:58;6.00;99.90
13052;DHT22;6592;47.484;9.726;2023-12-14T08:10:28;6.00;99.90
13052;DHT22;6592;47.484;9.726;2023-12-14T08:12:56;6.00;99.90
13052;DHT22;6592;47.484;9.726;2023-12-14T08:15:24;6.00;99.90
13052;DHT22;6592;47.484;9.726;2023-12-14T08:17:53;6.00;99.90
13052;DHT22;6592;47.484;9.726;2023-12-14T08:20:21;6.10;99.90
13052;DHT22;6592;47.484;9.726;2023-12-14T08:22:50;6.20;99.90
13052;DHT22;6592;47.484;9.726;2023-12-14T08:25:19;6.30;99.90
13052;DHT22;6592;47.484;9.726;2023-12-14T08:27:48;6.20;99.90
13052;DHT22;6592;47.484;9.726;2023-12-14T08:30:17;6.20;99.90
13052;DHT22;6592;47.484;9.726;2023-12-14T08:32:45;6.20;99.90
13052;DHT22;6592;47.484;9.726;2023-12-14T08:35:14;6.30;99.90
13052;DHT22;6592;47.484;9.726;2023-12-14T08:37:43;6.30;99.90
13052;DHT22;6592;47.484;9.726;2023-12-14T08:40:12;6.30;99.90
13052;DHT22;6592;47.484;9.726;2023-12-14T08:42:41;6.20;99.90
13052;DHT22;6592;47.484;9.726;2023-12-14T08:45:10;6.20;99.90
13052;DHT22;6592;47.484;9.726;2023-12-14T08:47:39;6.20;99.90
13052;DHT22;6592;47.484;9.726;2023-12-14T08:50:08;6.20;99.90
13052;DHT22;6592;47.484;9.726;2023-12-14T08:52:36;6.20;99.90
13052;DHT22;6592;47.484;9.726;2023-12-14T08:55:06;6.30;99.90
13052;DHT22;6592;47.484;9.726;2023-12-14T08:57:34;6.30;99.90
13052;DHT22;6592;47.484;9.726;2023-12-14T09:00:03;6.30;99.90
13052;DHT22;6592;47.484;9.726;2023-12-14T09:02:35;6.30;99.90
13052;DHT22;6592;47.484;9.726;2023-12-14T09:05:04;6.30;99.90
13052;DHT22;6592;47.484;9.726;2023-12-14T09:07:33;6.40;99.90
13052;DHT22;6592;47.484;9.726;2023-12-14T09:10:01;6.30;99.90
13052;DHT22;6592;47.484;9.726;2023-12-14T09:12:30;6.30;99.90
13052;DHT22;6592;47.484;9.726;2023-12-14T09:14:59;6.40;99.90
13052;DHT22;6592;47.484;9.726;2023-12-14T09:17:27;6.40;99.90
13052;DHT22;6592;47.484;9.726;2023-12-14T09:20:06;6.40;99.90
13052;DHT22;6592;47.484;9.726;2023-12-14T09:22:35;6.40;99.90
13052;DHT22;6592;47.484;9.726;2023-12-14T09:25:04;6.50;99.90
13052;DHT22;6592;47.484;9.726;2023-12-14T09:27:33;6.50;99.90
13052;DHT22;6592;47.484;9.726;2023-12-14T09:30:02;6.50;99.90
13052;DHT22;6592;47.484;9.726;2023-12-14T09:32:31;6.60;99.90
13052;DHT22;6592;47.484;9.726;2023-12-14T09:35:00;6.60;99.90
13052;DHT22;6592;47.484;9.726;2023-12-14T09:37:30;6.60;99.90
13052;DHT22;6592;47.484;9.726;2023-12-14T09:39:59;6.60;99.90
13052;DHT22;6592;47.484;9.726;2023-12-14T09:42:28;6.50;99.90
13052;DHT22;6592;47.484;9.726;2023-12-14T09:44:57;6.50;99.90
13052;DHT22;6592;47.484;9.726;2023-12-14T09:47:25;6.50;99.90
13052;DHT22;6592;47.484;9.726;2023-12-14T09:49:54;6.50;99.90
13052;DHT22;6592;47.484;9.726;2023-12-14T09:52:22;6.50;99.90
13052;DHT22;6592;47.484;9.726;2023-12-14T09:54:52;6.50;99.90
13052;DHT22;6592;47.484;9.726;2023-12-14T09:57:22;6.50;99.90
13052;DHT22;6592;47.484;9.726;2023-12-14T09:59:53;6.60;99.90
13052;DHT22;6592;47.484;9.726;2023-12-14T10:02:25;6.60;99.90
13052;DHT22;6592;47.484;9.726;2023-12-14T10:04:54;6.60;99.90
13052;DHT22;6592;47.484;9.726;2023-12-14T10:07:22;6.70;99.90
13052;DHT22;6592;47.484;9.726;2023-12-14T10:09:52;6.60;99.90
13052;DHT22;6592;47.484;9.726;2023-12-14T10:12:22;6.60;99.90
13052;DHT22;6592;47.484;9.726;2023-12-14T10:15:00;6.70;99.90
13052;DHT22;6592;47.484;9.726;2023-12-14T10:17:32;6.70;99.90
13052;DHT22;6592;47.484;9.726;2023-12-14T10:20:01;6.70;99.90
13052;DHT22;6592;47.484;9.726;2023-12-14T10:22:31;6.60;99.90
13052;DHT22;6592;47.484;9.726;2023-12-14T10:25:01;6.60;99.90
13052;DHT22;6592;47.484;9.726;2023-12-14T10:27:30;6.50;99.90
13052;DHT22;6592;47.484;9.726;2023-12-14T10:30:00;6.50;99.90
13052;DHT22;6592;47.484;9.726;2023-12-14T10:32:33;6.40;99.90
13052;DHT22;6592;47.484;9.726;2023-12-14T10:35:02;6.40;99.90
13052;DHT22;6592;47.484;9.726;2023-12-14T10:37:32;6.50;99.90
13052;DHT22;6592;47.484;9.726;2023-12-14T10:40:07;6.50;99.90
13052;DHT22;6592;47.484;9.726;2023-12-14T10:42:39;6.60;99.90
13052;DHT22;6592;47.484;9.726;2023-12-14T10:45:12;6.70;99.90
13052;DHT22;6592;47.484;9.726;2023-12-14T10:47:47;6.70;99.90
13052;DHT22;6592;47.484;9.726;2023-12-14T10:50:17;6.70;99.90
13052;DHT22;6592;47.484;9.726;2023-12-14T10:52:47;6.80;99.90
13052;DHT22;6592;47.484;9.726;2023-12-14T10:55:23;6.80;99.90
13052;DHT22;6592;47.484;9.726;2023-12-14T10:57:52;6.90;99.90
13052;DHT22;6592;47.484;9.726;2023-12-14T11:00:21;7.00;99.90
13052;DHT22;6592;47.484;9.726;2023-12-14T11:02:49;7.00;99.90
13052;DHT22;6592;47.484;9.726;2023-12-14T11:05:22;7.10;99.90
13052;DHT22;6592;47.484;9.726;2023-12-14T11:08:00;7.20;99.90
13052;DHT22;6592;47.484;9.726;2023-12-14T11:10:39;7.10;99.90
13052;DHT22;6592;47.484;9.726;2023-12-14T11:13:09;7.10;99.90
13052;DHT22;6592;47.484;9.726;2023-12-14T11:15:40;7.00;99.90
13052;DHT22;6592;47.484;9.726;2023-12-14T11:18:35;7.00;99.90
13052;DHT22;6592;47.484;9.726;2023-12-14T11:21:04;7.10;99.90
13052;DHT22;6592;47.484;9.726;2023-12-14T11:23:36;7.00;99.90
13052;DHT22;6592;47.484;9.726;2023-12-14T11:26:09;6.90;99.90
13052;DHT22;6592;47.484;9.726;2023-12-14T11:28:38;6.80;99.90
13052;DHT22;6592;47.484;9.726;2023-12-14T11:31:10;6.70;99.90
13052;DHT22;6592;47.484;9.726;2023-12-14T11:33:39;6.70;99.90
13052;DHT22;6592;47.484;9.726;2023-12-14T11:36:14;6.60;99.90
13052;DHT22;6592;47.484;9.726;2023-12-14T11:38:44;6.60;99.90
13052;DHT22;6592;47.484;9.726;2023-12-14T11:41:15;6.60;99.90
13052;DHT22;6592;47.484;9.726;2023-12-14T11:43:44;6.60;99.90
13052;DHT22;6592;47.484;9.726;2023-12-14T11:46:13;6.50;99.90
13052;DHT22;6592;47.484;9.726;2023-12-14T11:48:44;6.60;99.90
13052;DHT22;6592;47.484;9.726;2023-12-14T11:51:13;6.60;99.90
13052;DHT22;6592;47.484;9.726;2023-12-14T11:53:43;6.50;99.90
13052;DHT22;6592;47.484;9.726;2023-12-14T11:56:12;6.50;99.90
13052;DHT22;6592;47.484;9.726;2023-12-14T11:58:45;6.60;99.90
13052;DHT22;6592;47.484;9.726;2023-12-14T12:01:15;6.60;99.90
13052;DHT22;6592;47.484;9.726;2023-12-14T12:03:44;6.60;99.90
13052;DHT22;6592;47.484;9.726;2023-12-14T12:06:23;6.70;99.90
13052;DHT22;6592;47.484;9.726;2023-12-14T12:08:52;6.80;99.90
13052;DHT22;6592;47.484;9.726;2023-12-14T12:11:21;6.80;99.90
13052;DHT22;6592;47.484;9.726;2023-12-14T12:13:55;6.90;99.90
13052;DHT22;6592;47.484;9.726;2023-12-14T12:16:24;6.80;99.90
13052;DHT22;6592;47.484;9.726;2023-12-14T12:18:52;6.80;99.90
13052;DHT22;6592;47.484;9.726;2023-12-14T12:21:21;6.90;99.90
13052;DHT22;6592;47.484;9.726;2023-12-14T12:23:49;6.90;99.90
13052;DHT22;6592;47.484;9.726;2023-12-14T12:26:17;6.80;99.90
13052;DHT22;6592;47.484;9.726;2023-12-14T12:28:46;6.80;99.90
13052;DHT22;6592;47.484;9.726;2023-12-14T12:31:17;6.80;99.90
13052;DHT22;6592;47.484;9.726;2023-12-14T12:33:45;6.90;99.90
13052;DHT22;6592;47.484;9.726;2023-12-14T12:36:14;6.80;99.90
13052;DHT22;6592;47.484;9.726;2023-12-14T12:38:42;6.80;99.90
13052;DHT22;6592;47.484;9.726;2023-12-14T12:41:11;6.80;99.90
13052;DHT22;6592;47.484;9.726;2023-12-14T12:43:39;6.80;99.90
13052;DHT22;6592;47.484;9.726;2023-12-14T12:46:07;6.70;99.90
13052;DHT22;6592;47.484;9.726;2023-12-14T12:48:37;6.70;99.90
13052;DHT22;6592;47.484;9.726;2023-12-14T12:51:07;6.70;99.90
13052;DHT22;6592;47.484;9.726;2023-12-14T12:53:35;6.70;99.90
13052;DHT22;6592;47.484;9.726;2023-12-14T12:56:04;6.70;99.90
13052;DHT22;6592;47.484;9.726;2023-12-14T12:58:32;6.80;99.90
13052;DHT22;6592;47.484;9.726;2023-12-14T13:01:02;6.80;99.90
13052;DHT22;6592;47.484;9.726;2023-12-14T13:03:30;6.90;99.90
13052;DHT22;6592;47.484;9.726;2023-12-14T13:06:00;7.00;99.90
13052;DHT22;6592;47.484;9.726;2023-12-14T13:08:28;7.00;99.90
13052;DHT22;6592;47.484;9.726;2023-12-14T13:10:57;6.90;99.90
13052;DHT22;6592;47.484;9.726;2023-12-14T13:13:27;6.80;99.90
13052;DHT22;6592;47.484;9.726;2023-12-14T13:15:55;6.80;99.90
13052;DHT22;6592;47.484;9.726;2023-12-14T13:18:23;6.80;99.90
13052;DHT22;6592;47.484;9.726;2023-12-14T13:20:52;6.80;99.90
13052;DHT22;6592;47.484;9.726;2023-12-14T13:23:21;6.80;99.90
13052;DHT22;6592;47.484;9.726;2023-12-14T13:25:50;6.90;99.90
13052;DHT22;6592;47.484;9.726;2023-12-14T13:28:18;6.90;99.90
13052;DHT22;6592;47.484;9.726;2023-12-14T13:30:47;6.90;99.90
13052;DHT22;6592;47.484;9.726;2023-12-14T13:33:15;6.90;99.90
13052;DHT22;6592;47.484;9.726;2023-12-14T13:35:43;6.90;99.90
13052;DHT22;6592;47.484;9.726;2023-12-14T13:38:12;6.90;99.90
13052;DHT22;6592;47.484;9.726;2023-12-14T13:40:42;6.90;99.90
13052;DHT22;6592;47.484;9.726;2023-12-14T13:43:10;6.90;99.90
13052;DHT22;6592;47.484;9.726;2023-12-14T13:45:39;6.90;99.90
13052;DHT22;6592;47.484;9.726;2023-12-14T13:48:09;7.00;99.90
13052;DHT22;6592;47.484;9.726;2023-12-14T13:50:38;7.00;99.90
13052;DHT22;6592;47.484;9.726;2023-12-14T13:53:07;7.00;99.90
13052;DHT22;6592;47.484;9.726;2023-12-14T13:55:36;7.00;99.90
13052;DHT22;6592;47.484;9.726;2023-12-14T13:58:05;7.10;99.90
13052;DHT22;6592;47.484;9.726;2023-12-14T14:00:34;7.10;99.90
13052;DHT22;6592;47.484;9.726;2023-12-14T14:03:03;7.00;99.90
13052;DHT22;6592;47.484;9.726;2023-12-14T14:05:32;7.10;99.90
13052;DHT22;6592;47.484;9.726;2023-12-14T14:08:01;7.20;99.90
13052;DHT22;6592;47.484;9.726;2023-12-14T14:10:31;7.20;99.90
13052;DHT22;6592;47.484;9.726;2023-12-14T14:12:59;7.10;99.90
13052;DHT22;6592;47.484;9.726;2023-12-14T14:15:29;7.10;99.90
13052;DHT22;6592;47.484;9.726;2023-12-14T14:17:57;7.20;99.90
13052;DHT22;6592;47.484;9.726;2023-12-14T14:20:26;7.10;99.90
13052;DHT22;6592;47.484;9.726;2023-12-14T14:22:55;7.10;99.90
13052;DHT22;6592;47.484;9.726;2023-12-14T14:25:26;7.10;99.90
13052;DHT22;6592;47.484;9.726;2023-12-14T14:27:54;7.10;99.90
13052;DHT22;6592;47.484;9.726;2023-12-14T14:30:23;7.10;99.90
13052;DHT22;6592;47.484;9.726;2023-12-14T14:32:53;7.00;99.90
13052;DHT22;6592;47.484;9.726;2023-12-14T14:35:21;7.00;99.90
13052;DHT22;6592;47.484;9.726;2023-12-14T14:37:50;6.90;99.90
13052;DHT22;6592;47.484;9.726;2023-12-14T14:40:19;7.00;99.90
13052;DHT22;6592;47.484;9.726;2023-12-14T14:42:48;7.10;99.90
13052;DHT22;6592;47.484;9.726;2023-12-14T14:45:17;7.10;99.90
13052;DHT22;6592;47.484;9.726;2023-12-14T14:47:45;7.10;99.90
13052;DHT22;6592;47.484;9.726;2023-12-14T14:50:15;7.10;99.90
13052;DHT22;6592;47.484;9.726;2023-12-14T14:52:43;7.10;99.90
13052;DHT22;6592;47.484;9.726;2023-12-14T14:55:12;7.10;99.90
13052;DHT22;6592;47.484;9.726;2023-12-14T14:57:41;7.10;99.90
13052;DHT22;6592;47.484;9.726;2023-12-14T15:00:09;7.10;99.90
13052;DHT22;6592;47.484;9.726;2023-12-14T15:02:38;7.10;99.90
13052;DHT22;6592;47.484;9.726;2023-12-14T15:05:08;7.10;99.90
13052;DHT22;6592;47.484;9.726;2023-12-14T15:07:37;7.10;99.90
13052;DHT22;6592;47.484;9.726;2023-12-14T15:10:07;7.00;99.90
13052;DHT22;6592;47.484;9.726;2023-12-14T15:12:35;7.10;99.90
13052;DHT22;6592;47.484;9.726;2023-12-14T15:15:05;7.10;99.90
13052;DHT22;6592;47.484;9.726;2023-12-14T15:17:36;7.20;99.90
13052;DHT22;6592;47.484;9.726;2023-12-14T15:20:06;7.10;99.90
13052;DHT22;6592;47.484;9.726;2023-12-14T15:22:36;7.10;99.90
13052;DHT22;6592;47.484;9.726;2023-12-14T15:25:05;7.10;99.90
13052;DHT22;6592;47.484;9.726;2023-12-14T15:27:34;7.10;99.90
13052;DHT22;6592;47.484;9.726;2023-12-14T15:30:03;7.10;99.90
13052;DHT22;6592;47.484;9.726;2023-12-14T15:32:33;7.10;99.90
13052;DHT22;6592;47.484;9.726;2023-12-14T15:35:02;7.20;99.90
13052;DHT22;6592;47.484;9.726;2023-12-14T15:37:31;7.20;99.90
13052;DHT22;6592;47.484;9.726;2023-12-14T15:40:00;7.10;99.90
13052;DHT22;6592;47.484;9.726;2023-12-14T15:42:29;7.10;99.90
13052;DHT22;6592;47.484;9.726;2023-12-14T15:44:57;7.10;99.90
13052;DHT22;6592;47.484;9.726;2023-12-14T15:47:26;7.00;99.90
13052;DHT22;6592;47.484;9.726;2023-12-14T15:49:55;7.00;99.90
13052;DHT22;6592;47.484;9.726;2023-12-14T15:52:23;7.00;99.90
13052;DHT22;6592;47.484;9.726;2023-12-14T15:54:52;7.00;99.90
13052;DHT22;6592;47.484;9.726;2023-12-14T15:57:21;7.00;99.90
13052;DHT22;6592;47.484;9.726;2023-12-14T15:59:50;6.90;99.90
13052;DHT22;6592;47.484;9.726;2023-12-14T16:02:18;7.00;99.90
13052;DHT22;6592;47.484;9.726;2023-12-14T16:04:46;6.90;99.90
13052;DHT22;6592;47.484;9.726;2023-12-14T16:07:15;6.90;99.90
13052;DHT22;6592;47.484;9.726;2023-12-14T16:09:44;7.00;99.90
13052;DHT22;6592;47.484;9.726;2023-12-14T16:12:18;7.00;99.90
13052;DHT22;6592;47.484;9.726;2023-12-14T16:14:48;7.10;99.90